sensor_id;sensor_type;location;lat;lon;timestamp;pressure;altitude;pressure_sealevel;temperature
60731;BMP280;46580;52.114;11.674;2023-04-27T00:00:11;101346.69;;;7.62
60731;BMP280;46580;52.114;11.674;2023-04-27T00:02:38;101345.06;;;7.61
60731;BMP280;46580;52.114;11.674;2023-04-27T00:05:04;101339.94;;;7.61
60731;BMP280;46580;52.114;11.674;2023-04-27T00:07:30;101348.41;;;7.61
60731;BMP280;46580;52.114;11.674;2023-04-27T00:09:55;101341.66;;;7.61
60731;BMP280;46580;52.114;11.674;2023-04-27T00:12:21;101343.47;;;7.59
60731;BMP280;46580;52.114;11.674;2023-04-27T00:14:46;101341.88;;;7.56
60731;BMP280;46580;52.114;11.674;2023-04-27T00:17:11;101347.00;;;7.56
60731;BMP280;46580;52.114;11.674;2023-04-27T00:19:37;101347.91;;;7.55
60731;BMP280;46580;52.114;11.674;2023-04-27T00:22:03;101347.28;;;7.52
60731;BMP280;46580;52.114;11.674;2023-04-27T00:24:29;101345.69;;;7.49
60731;BMP280;46580;52.114;11.674;2023-04-27T00:26:54;101343.22;;;7.48
60731;BMP280;46580;52.114;11.674;2023-04-27T00:29:19;101343.47;;;7.43
60731;BMP280;46580;52.114;11.674;2023-04-27T00:31:45;101345.94;;;7.45
60731;BMP280;46580;52.114;11.674;2023-04-27T00:34:10;101347.75;;;7.43
60731;BMP280;46580;52.114;11.674;2023-04-27T00:36:36;101340.06;;;7.43
60731;BMP280;46580;52.114;11.674;2023-04-27T00:39:02;101341.81;;;7.42
60731;BMP280;46580;52.114;11.674;2023-04-27T00:41:28;101348.75;;;7.41
60731;BMP280;46580;52.114;11.674;2023-04-27T00:43:53;101342.88;;;7.39
60731;BMP280;46580;52.114;11.674;2023-04-27T00:46:18;101346.19;;;7.41
60731;BMP280;46580;52.114;11.674;2023-04-27T00:48:44;101346.34;;;7.38
60731;BMP280;46580;52.114;11.674;2023-04-27T00:51:10;101350.66;;;7.37
60731;BMP280;46580;52.114;11.674;2023-04-27T00:53:36;101346.44;;;7.36
60731;BMP280;46580;52.114;11.674;2023-04-27T00:56:05;101354.19;;;7.35
60731;BMP280;46580;52.114;11.674;2023-04-27T00:58:31;101356.75;;;7.35
60731;BMP280;46580;52.114;11.674;2023-04-27T01:00:57;101350.06;;;7.32
60731;BMP280;46580;52.114;11.674;2023-04-27T01:03:23;101356.16;;;7.30
60731;BMP280;46580;52.114;11.674;2023-04-27T01:05:48;101357.19;;;7.27
60731;BMP280;46580;52.114;11.674;2023-04-27T01:08:13;101367.50;;;7.26
60731;BMP280;46580;52.114;11.674;2023-04-27T01:10:39;101361.75;;;7.21
60731;BMP280;46580;52.114;11.674;2023-04-27T01:13:05;101361.63;;;7.24
60731;BMP280;46580;52.114;11.674;2023-04-27T01:15:30;101361.63;;;7.24
60731;BMP280;46580;52.114;11.674;2023-04-27T01:17:59;101359.81;;;7.26
60731;BMP280;46580;52.114;11.674;2023-04-27T01:20:25;101352.22;;;7.24
60731;BMP280;46580;52.114;11.674;2023-04-27T01:22:57;101354.84;;;7.23
60731;BMP280;46580;52.114;11.674;2023-04-27T01:25:23;101358.47;;;7.19
60731;BMP280;46580;52.114;11.674;2023-04-27T01:27:49;101360.13;;;7.20
60731;BMP280;46580;52.114;11.674;2023-04-27T01:30:14;101357.66;;;7.19
60731;BMP280;46580;52.114;11.674;2023-04-27T01:32:41;101354.25;;;7.18
60731;BMP280;46580;52.114;11.674;2023-04-27T01:35:07;101353.44;;;7.18
60731;BMP280;46580;52.114;11.674;2023-04-27T01:37:32;101367.06;;;7.18
60731;BMP280;46580;52.114;11.674;2023-04-27T01:39:58;101364.56;;;7.17
60731;BMP280;46580;52.114;11.674;2023-04-27T01:42:23;101373.16;;;7.16
60731;BMP280;46580;52.114;11.674;2023-04-27T01:44:49;101370.66;;;7.14
60731;BMP280;46580;52.114;11.674;2023-04-27T01:47:14;101368.22;;;7.13
60731;BMP280;46580;52.114;11.674;2023-04-27T01:49:41;101374.38;;;7.09
60731;BMP280;46580;52.114;11.674;2023-04-27T01:52:06;101372.66;;;7.09
60731;BMP280;46580;52.114;11.674;2023-04-27T01:54:32;101371.00;;;7.08
60731;BMP280;46580;52.114;11.674;2023-04-27T01:56:57;101377.94;;;7.06
60731;BMP280;46580;52.114;11.674;2023-04-27T01:59:22;101375.38;;;7.06
60731;BMP280;46580;52.114;11.674;2023-04-27T02:01:48;101378.09;;;7.04
60731;BMP280;46580;52.114;11.674;2023-04-27T02:04:13;101369.59;;;7.03
60731;BMP280;46580;52.114;11.674;2023-04-27T02:06:39;101379.00;;;7.03
60731;BMP280;46580;52.114;11.674;2023-04-27T02:09:05;101382.38;;;7.03
60731;BMP280;46580;52.114;11.674;2023-04-27T02:11:33;101385.00;;;7.02
60731;BMP280;46580;52.114;11.674;2023-04-27T02:13:58;101383.38;;;7.01
60731;BMP280;46580;52.114;11.674;2023-04-27T02:16:24;101386.84;;;7.00
60731;BMP280;46580;52.114;11.674;2023-04-27T02:18:49;101385.94;;;7.01
60731;BMP280;46580;52.114;11.674;2023-04-27T02:21:17;101390.63;;;7.08
60731;BMP280;46580;52.114;11.674;2023-04-27T02:23:43;101395.75;;;7.08
60731;BMP280;46580;52.114;11.674;2023-04-27T02:26:15;101400.22;;;7.05
60731;BMP280;46580;52.114;11.674;2023-04-27T02:28:41;101395.25;;;7.02
60731;BMP280;46580;52.114;11.674;2023-04-27T02:31:07;101398.75;;;7.01
60731;BMP280;46580;52.114;11.674;2023-04-27T02:33:32;101397.09;;;7.00
60731;BMP280;46580;52.114;11.674;2023-04-27T02:35:57;101400.59;;;6.97
60731;BMP280;46580;52.114;11.674;2023-04-27T02:38:23;101406.81;;;7.08
60731;BMP280;46580;52.114;11.674;2023-04-27T02:40:52;101407.00;;;7.05
60731;BMP280;46580;52.114;11.674;2023-04-27T02:43:19;101404.50;;;7.04
60731;BMP280;46580;52.114;11.674;2023-04-27T02:45:44;101410.47;;;7.05
60731;BMP280;46580;52.114;11.674;2023-04-27T02:48:09;101420.94;;;7.00
60731;BMP280;46580;52.114;11.674;2023-04-27T02:50:39;101415.72;;;7.02
60731;BMP280;46580;52.114;11.674;2023-04-27T02:53:05;101414.88;;;7.01
60731;BMP280;46580;52.114;11.674;2023-04-27T02:55:31;101419.13;;;7.02
60731;BMP280;46580;52.114;11.674;2023-04-27T02:57:56;101414.81;;;7.19
60731;BMP280;46580;52.114;11.674;2023-04-27T03:00:21;101421.41;;;7.23
60731;BMP280;46580;52.114;11.674;2023-04-27T03:02:47;101424.34;;;7.16
60731;BMP280;46580;52.114;11.674;2023-04-27T03:05:12;101430.38;;;7.15
60731;BMP280;46580;52.114;11.674;2023-04-27T03:07:38;101422.91;;;7.27
60731;BMP280;46580;52.114;11.674;2023-04-27T03:10:03;101431.53;;;7.41
60731;BMP280;46580;52.114;11.674;2023-04-27T03:12:29;101432.00;;;7.32
60731;BMP280;46580;52.114;11.674;2023-04-27T03:14:54;101427.94;;;7.28
60731;BMP280;46580;52.114;11.674;2023-04-27T03:17:19;101435.22;;;7.36
60731;BMP280;46580;52.114;11.674;2023-04-27T03:19:46;101434.78;;;7.28
60731;BMP280;46580;52.114;11.674;2023-04-27T03:22:12;101431.06;;;7.18
60731;BMP280;46580;52.114;11.674;2023-04-27T03:24:37;101438.06;;;7.15
60731;BMP280;46580;52.114;11.674;2023-04-27T03:27:02;101431.38;;;7.12
60731;BMP280;46580;52.114;11.674;2023-04-27T03:29:28;101426.41;;;7.09
60731;BMP280;46580;52.114;11.674;2023-04-27T03:31:53;101440.41;;;7.03
60731;BMP280;46580;52.114;11.674;2023-04-27T03:34:19;101441.31;;;7.02
60731;BMP280;46580;52.114;11.674;2023-04-27T03:36:45;101439.81;;;6.98
60731;BMP280;46580;52.114;11.674;2023-04-27T03:39:11;101445.59;;;7.01
60731;BMP280;46580;52.114;11.674;2023-04-27T03:41:36;101447.78;;;7.08
60731;BMP280;46580;52.114;11.674;2023-04-27T03:44:01;101443.63;;;7.23
60731;BMP280;46580;52.114;11.674;2023-04-27T03:46:27;101444.44;;;7.40
60731;BMP280;46580;52.114;11.674;2023-04-27T03:48:52;101446.69;;;7.29
60731;BMP280;46580;52.114;11.674;2023-04-27T03:51:18;101443.31;;;7.28
60731;BMP280;46580;52.114;11.674;2023-04-27T03:53:43;101440.53;;;7.16
60731;BMP280;46580;52.114;11.674;2023-04-27T03:56:09;101438.88;;;7.15
60731;BMP280;46580;52.114;11.674;2023-04-27T03:58:34;101441.38;;;7.17
60731;BMP280;46580;52.114;11.674;2023-04-27T04:00:59;101447.56;;;7.13
60731;BMP280;46580;52.114;11.674;2023-04-27T04:03:25;101444.81;;;7.01
60731;BMP280;46580;52.114;11.674;2023-04-27T04:05:50;101443.22;;;6.98
60731;BMP280;46580;52.114;11.674;2023-04-27T04:08:16;101442.31;;;6.99
60731;BMP280;46580;52.114;11.674;2023-04-27T04:10:41;101440.47;;;7.01
60731;BMP280;46580;52.114;11.674;2023-04-27T04:13:06;101441.31;;;7.02
60731;BMP280;46580;52.114;11.674;2023-04-27T04:15:31;101442.16;;;7.02
60731;BMP280;46580;52.114;11.674;2023-04-27T04:17:57;101444.63;;;7.04
60731;BMP280;46580;52.114;11.674;2023-04-27T04:20:22;101447.94;;;7.05
60731;BMP280;46580;52.114;11.674;2023-04-27T04:22:48;101441.94;;;7.06
60731;BMP280;46580;52.114;11.674;2023-04-27T04:25:13;101453.06;;;7.05
60731;BMP280;46580;52.114;11.674;2023-04-27T04:27:39;101448.09;;;7.03
60731;BMP280;46580;52.114;11.674;2023-04-27T04:30:06;101454.81;;;7.05
60731;BMP280;46580;52.114;11.674;2023-04-27T04:32:32;101450.66;;;7.03
60731;BMP280;46580;52.114;11.674;2023-04-27T04:34:57;101456.59;;;7.03
60731;BMP280;46580;52.114;11.674;2023-04-27T04:37:23;101460.81;;;7.04
60731;BMP280;46580;52.114;11.674;2023-04-27T04:39:48;101452.31;;;7.04
60731;BMP280;46580;52.114;11.674;2023-04-27T04:42:14;101454.88;;;7.04
60731;BMP280;46580;52.114;11.674;2023-04-27T04:44:40;101451.56;;;7.02
60731;BMP280;46580;52.114;11.674;2023-04-27T04:47:05;101450.06;;;6.98
60731;BMP280;46580;52.114;11.674;2023-04-27T04:49:30;101445.09;;;6.95
60731;BMP280;46580;52.114;11.674;2023-04-27T04:51:56;101457.97;;;6.93
60731;BMP280;46580;52.114;11.674;2023-04-27T04:54:21;101455.50;;;6.92
60731;BMP280;46580;52.114;11.674;2023-04-27T04:56:46;101456.47;;;6.89
60731;BMP280;46580;52.114;11.674;2023-04-27T04:59:12;101459.91;;;6.88
60731;BMP280;46580;52.114;11.674;2023-04-27T05:01:37;101461.50;;;6.91
60731;BMP280;46580;52.114;11.674;2023-04-27T05:04:03;101465.88;;;6.89
60731;BMP280;46580;52.114;11.674;2023-04-27T05:06:28;101474.59;;;6.85
60731;BMP280;46580;52.114;11.674;2023-04-27T05:08:53;101472.00;;;6.87
60731;BMP280;46580;52.114;11.674;2023-04-27T05:11:19;101475.56;;;6.83
60731;BMP280;46580;52.114;11.674;2023-04-27T05:13:44;101478.84;;;6.86
60731;BMP280;46580;52.114;11.674;2023-04-27T05:16:09;101482.88;;;6.90
60731;BMP280;46580;52.114;11.674;2023-04-27T05:18:35;101486.34;;;6.89
60731;BMP280;46580;52.114;11.674;2023-04-27T05:21:01;101488.91;;;6.89
60731;BMP280;46580;52.114;11.674;2023-04-27T05:23:26;101495.59;;;6.91
60731;BMP280;46580;52.114;11.674;2023-04-27T05:25:52;101494.00;;;6.89
60731;BMP280;46580;52.114;11.674;2023-04-27T05:28:17;101487.88;;;6.93
60731;BMP280;46580;52.114;11.674;2023-04-27T05:30:42;101491.00;;;6.98
60731;BMP280;46580;52.114;11.674;2023-04-27T05:33:08;101497.88;;;7.14
60731;BMP280;46580;52.114;11.674;2023-04-27T05:35:33;101490.41;;;7.09
60731;BMP280;46580;52.114;11.674;2023-04-27T05:37:59;101503.03;;;6.96
60731;BMP280;46580;52.114;11.674;2023-04-27T05:40:24;101503.22;;;6.93
60731;BMP280;46580;52.114;11.674;2023-04-27T05:42:50;101498.97;;;7.08
60731;BMP280;46580;52.114;11.674;2023-04-27T05:45:16;101500.94;;;7.04
60731;BMP280;46580;52.114;11.674;2023-04-27T05:47:41;101509.22;;;7.08
60731;BMP280;46580;52.114;11.674;2023-04-27T05:50:07;101505.63;;;7.12
60731;BMP280;46580;52.114;11.674;2023-04-27T05:52:32;101509.00;;;7.61
60731;BMP280;46580;52.114;11.674;2023-04-27T05:54:58;101505.50;;;7.62
60731;BMP280;46580;52.114;11.674;2023-04-27T05:57:24;101507.25;;;7.61
60731;BMP280;46580;52.114;11.674;2023-04-27T05:59:50;101512.53;;;7.59
60731;BMP280;46580;52.114;11.674;2023-04-27T06:02:16;101520.41;;;7.39
60731;BMP280;46580;52.114;11.674;2023-04-27T06:04:41;101520.38;;;7.56
60731;BMP280;46580;52.114;11.674;2023-04-27T06:07:14;101522.91;;;7.41
60731;BMP280;46580;52.114;11.674;2023-04-27T06:09:40;101519.72;;;7.36
60731;BMP280;46580;52.114;11.674;2023-04-27T06:12:06;101528.63;;;7.29
60731;BMP280;46580;52.114;11.674;2023-04-27T06:14:34;101517.41;;;7.31
60731;BMP280;46580;52.114;11.674;2023-04-27T06:17:01;101525.16;;;7.30
60731;BMP280;46580;52.114;11.674;2023-04-27T06:19:26;101532.41;;;7.39
60731;BMP280;46580;52.114;11.674;2023-04-27T06:21:55;101536.75;;;7.53
60731;BMP280;46580;52.114;11.674;2023-04-27T06:24:21;101539.19;;;7.71
60731;BMP280;46580;52.114;11.674;2023-04-27T06:26:48;101532.47;;;7.69
60731;BMP280;46580;52.114;11.674;2023-04-27T06:29:14;101545.59;;;7.63
60731;BMP280;46580;52.114;11.674;2023-04-27T06:31:39;101538.16;;;7.59
60731;BMP280;46580;52.114;11.674;2023-04-27T06:34:05;101533.72;;;8.09
60731;BMP280;46580;52.114;11.674;2023-04-27T06:36:30;101542.00;;;7.67
60731;BMP280;46580;52.114;11.674;2023-04-27T06:38:56;101544.69;;;7.64
60731;BMP280;46580;52.114;11.674;2023-04-27T06:41:23;101554.06;;;7.65
60731;BMP280;46580;52.114;11.674;2023-04-27T06:43:48;101554.25;;;7.45
60731;BMP280;46580;52.114;11.674;2023-04-27T06:46:14;101558.41;;;7.63
60731;BMP280;46580;52.114;11.674;2023-04-27T06:48:39;101558.47;;;7.78
60731;BMP280;46580;52.114;11.674;2023-04-27T06:51:05;101547.75;;;7.87
60731;BMP280;46580;52.114;11.674;2023-04-27T06:53:31;101553.94;;;8.15
60731;BMP280;46580;52.114;11.674;2023-04-27T06:55:56;101555.81;;;7.79
60731;BMP280;46580;52.114;11.674;2023-04-27T06:58:22;101553.69;;;7.87
60731;BMP280;46580;52.114;11.674;2023-04-27T07:00:47;101553.34;;;7.78
60731;BMP280;46580;52.114;11.674;2023-04-27T07:03:13;101551.28;;;7.84
60731;BMP280;46580;52.114;11.674;2023-04-27T07:05:39;101552.03;;;8.33
60731;BMP280;46580;52.114;11.674;2023-04-27T07:08:05;101555.19;;;8.68
60731;BMP280;46580;52.114;11.674;2023-04-27T07:10:30;101552.53;;;8.24
60731;BMP280;46580;52.114;11.674;2023-04-27T07:12:55;101559.97;;;8.44
60731;BMP280;46580;52.114;11.674;2023-04-27T07:15:21;101562.44;;;8.30
60731;BMP280;46580;52.114;11.674;2023-04-27T07:17:46;101569.56;;;8.25
60731;BMP280;46580;52.114;11.674;2023-04-27T07:20:12;101553.66;;;8.64
60731;BMP280;46580;52.114;11.674;2023-04-27T07:22:38;101544.91;;;8.68
60731;BMP280;46580;52.114;11.674;2023-04-27T07:25:04;101552.28;;;8.44
60731;BMP280;46580;52.114;11.674;2023-04-27T07:27:30;101549.06;;;8.55
60731;BMP280;46580;52.114;11.674;2023-04-27T07:29:56;101546.66;;;8.96
60731;BMP280;46580;52.114;11.674;2023-04-27T07:32:21;101555.91;;;9.14
60731;BMP280;46580;52.114;11.674;2023-04-27T07:34:46;101555.81;;;8.87
60731;BMP280;46580;52.114;11.674;2023-04-27T07:37:12;101556.72;;;9.14
60731;BMP280;46580;52.114;11.674;2023-04-27T07:39:38;101555.78;;;9.44
60731;BMP280;46580;52.114;11.674;2023-04-27T07:42:03;101556.06;;;9.11
60731;BMP280;46580;52.114;11.674;2023-04-27T07:44:29;101556.00;;;8.97
60731;BMP280;46580;52.114;11.674;2023-04-27T07:46:54;101566.75;;;8.45
60731;BMP280;46580;52.114;11.674;2023-04-27T07:49:23;101569.09;;;8.34
60731;BMP280;46580;52.114;11.674;2023-04-27T07:51:49;101570.25;;;8.29
60731;BMP280;46580;52.114;11.674;2023-04-27T07:54:15;101568.75;;;8.40
60731;BMP280;46580;52.114;11.674;2023-04-27T07:56:41;101555.34;;;8.65
60731;BMP280;46580;52.114;11.674;2023-04-27T07:59:07;101558.28;;;8.88
60731;BMP280;46580;52.114;11.674;2023-04-27T08:01:32;101560.28;;;9.12
60731;BMP280;46580;52.114;11.674;2023-04-27T08:03:57;101569.28;;;9.19
60731;BMP280;46580;52.114;11.674;2023-04-27T08:06:23;101562.34;;;9.21
60731;BMP280;46580;52.114;11.674;2023-04-27T08:08:48;101558.00;;;9.50
60731;BMP280;46580;52.114;11.674;2023-04-27T08:11:14;101560.06;;;9.86
60731;BMP280;46580;52.114;11.674;2023-04-27T08:13:39;101562.41;;;9.48
60731;BMP280;46580;52.114;11.674;2023-04-27T08:16:05;101562.22;;;9.51
60731;BMP280;46580;52.114;11.674;2023-04-27T08:18:30;101562.00;;;9.40
60731;BMP280;46580;52.114;11.674;2023-04-27T08:20:55;101565.06;;;9.47
60731;BMP280;46580;52.114;11.674;2023-04-27T08:23:21;101564.88;;;9.49
60731;BMP280;46580;52.114;11.674;2023-04-27T08:25:46;101572.41;;;9.66
60731;BMP280;46580;52.114;11.674;2023-04-27T08:28:13;101560.16;;;10.12
60731;BMP280;46580;52.114;11.674;2023-04-27T08:30:40;101568.28;;;9.77
60731;BMP280;46580;52.114;11.674;2023-04-27T08:33:06;101561.91;;;9.84
60731;BMP280;46580;52.114;11.674;2023-04-27T08:35:32;101575.69;;;9.83
60731;BMP280;46580;52.114;11.674;2023-04-27T08:37:57;101576.53;;;9.41
60731;BMP280;46580;52.114;11.674;2023-04-27T08:40:23;101564.19;;;9.32
60731;BMP280;46580;52.114;11.674;2023-04-27T08:42:59;101566.66;;;9.63
60731;BMP280;46580;52.114;11.674;2023-04-27T08:45:25;101565.97;;;9.88
60731;BMP280;46580;52.114;11.674;2023-04-27T08:47:51;101576.78;;;10.06
60731;BMP280;46580;52.114;11.674;2023-04-27T08:50:17;101567.78;;;10.00
60731;BMP280;46580;52.114;11.674;2023-04-27T08:52:44;101563.47;;;10.53
60731;BMP280;46580;52.114;11.674;2023-04-27T08:55:09;101565.53;;;10.74
60731;BMP280;46580;52.114;11.674;2023-04-27T08:57:35;101557.78;;;10.48
60731;BMP280;46580;52.114;11.674;2023-04-27T09:00:00;101563.78;;;10.75
60731;BMP280;46580;52.114;11.674;2023-04-27T09:02:28;101568.69;;;10.12
60731;BMP280;46580;52.114;11.674;2023-04-27T09:04:54;101559.69;;;9.92
60731;BMP280;46580;52.114;11.674;2023-04-27T09:07:20;101563.63;;;10.24
60731;BMP280;46580;52.114;11.674;2023-04-27T09:09:45;101560.00;;;10.40
60731;BMP280;46580;52.114;11.674;2023-04-27T09:12:16;101570.06;;;10.71
60731;BMP280;46580;52.114;11.674;2023-04-27T09:14:42;101564.28;;;10.14
60731;BMP280;46580;52.114;11.674;2023-04-27T09:17:07;101560.66;;;10.44
60731;BMP280;46580;52.114;11.674;2023-04-27T09:19:33;101558.94;;;10.31
60731;BMP280;46580;52.114;11.674;2023-04-27T09:22:06;101559.69;;;9.92
60731;BMP280;46580;52.114;11.674;2023-04-27T09:24:31;101559.53;;;9.95
60731;BMP280;46580;52.114;11.674;2023-04-27T09:26:57;101552.72;;;9.94
60731;BMP280;46580;52.114;11.674;2023-04-27T09:29:38;101552.31;;;9.59
60731;BMP280;46580;52.114;11.674;2023-04-27T09:32:16;101553.63;;;9.37
60731;BMP280;46580;52.114;11.674;2023-04-27T09:34:43;101551.56;;;9.57
60731;BMP280;46580;52.114;11.674;2023-04-27T09:37:09;101549.50;;;10.04
60731;BMP280;46580;52.114;11.674;2023-04-27T09:39:35;101536.53;;;10.84
60731;BMP280;46580;52.114;11.674;2023-04-27T09:42:01;101531.13;;;11.13
60731;BMP280;46580;52.114;11.674;2023-04-27T09:44:28;101528.47;;;11.27
60731;BMP280;46580;52.114;11.674;2023-04-27T09:46:57;101527.72;;;11.13
60731;BMP280;46580;52.114;11.674;2023-04-27T09:49:25;101526.28;;;11.21
60731;BMP280;46580;52.114;11.674;2023-04-27T09:51:50;101540.16;;;10.94
60731;BMP280;46580;52.114;11.674;2023-04-27T09:54:19;101533.78;;;10.74
60731;BMP280;46580;52.114;11.674;2023-04-27T09:56:52;101531.34;;;10.33
60731;BMP280;46580;52.114;11.674;2023-04-27T10:01:59;101536.38;;;9.95
60731;BMP280;46580;52.114;11.674;2023-04-27T10:05:06;101535.28;;;9.85
60731;BMP280;46580;52.114;11.674;2023-04-27T10:07:36;101538.56;;;10.01
60731;BMP280;46580;52.114;11.674;2023-04-27T10:10:02;101537.00;;;10.12
60731;BMP280;46580;52.114;11.674;2023-04-27T10:12:35;101522.56;;;10.75
60731;BMP280;46580;52.114;11.674;2023-04-27T10:17:36;101541.00;;;10.69
60731;BMP280;46580;52.114;11.674;2023-04-27T10:20:04;101535.03;;;10.42
60731;BMP280;46580;52.114;11.674;2023-04-27T10:22:47;101547.81;;;10.30
60731;BMP280;46580;52.114;11.674;2023-04-27T10:27:52;101545.50;;;10.26
60731;BMP280;46580;52.114;11.674;2023-04-27T10:30:20;101535.34;;;10.11
60731;BMP280;46580;52.114;11.674;2023-04-27T10:32:56;101544.97;;;10.35
60731;BMP280;46580;52.114;11.674;2023-04-27T10:35:31;101540.53;;;10.50
60731;BMP280;46580;52.114;11.674;2023-04-27T10:38:18;101545.63;;;11.02
60731;BMP280;46580;52.114;11.674;2023-04-27T10:40:53;101534.84;;;11.21
60731;BMP280;46580;52.114;11.674;2023-04-27T10:43:23;101536.72;;;10.81
60731;BMP280;46580;52.114;11.674;2023-04-27T10:45:49;101531.97;;;10.76
60731;BMP280;46580;52.114;11.674;2023-04-27T10:48:14;101536.59;;;10.71
60731;BMP280;46580;52.114;11.674;2023-04-27T10:50:40;101544.91;;;10.22
60731;BMP280;46580;52.114;11.674;2023-04-27T10:53:06;101541.19;;;10.26
60731;BMP280;46580;52.114;11.674;2023-04-27T10:55:33;101551.03;;;10.20
60731;BMP280;46580;52.114;11.674;2023-04-27T10:57:59;101548.84;;;10.54
60731;BMP280;46580;52.114;11.674;2023-04-27T11:00:36;101543.81;;;10.52
60731;BMP280;46580;52.114;11.674;2023-04-27T11:03:21;101549.06;;;10.51
60731;BMP280;46580;52.114;11.674;2023-04-27T11:05:48;101546.31;;;11.17
60731;BMP280;46580;52.114;11.674;2023-04-27T11:08:17;101541.84;;;11.57
60731;BMP280;46580;52.114;11.674;2023-04-27T11:10:46;101536.16;;;11.77
60731;BMP280;46580;52.114;11.674;2023-04-27T11:13:15;101539.75;;;11.87
60731;BMP280;46580;52.114;11.674;2023-04-27T11:15:53;101543.00;;;12.13
60731;BMP280;46580;52.114;11.674;2023-04-27T11:18:21;101529.63;;;11.96
60731;BMP280;46580;52.114;11.674;2023-04-27T11:20:49;101534.84;;;11.71
60731;BMP280;46580;52.114;11.674;2023-04-27T11:23:25;101535.13;;;11.91
60731;BMP280;46580;52.114;11.674;2023-04-27T11:25:51;101528.19;;;12.04
60731;BMP280;46580;52.114;11.674;2023-04-27T11:28:20;101532.47;;;12.16
60731;BMP280;46580;52.114;11.674;2023-04-27T11:30:46;101532.91;;;12.10
60731;BMP280;46580;52.114;11.674;2023-04-27T11:33:13;101532.69;;;12.25
60731;BMP280;46580;52.114;11.674;2023-04-27T11:35:39;101534.44;;;12.47
60731;BMP280;46580;52.114;11.674;2023-04-27T11:38:04;101531.84;;;12.25
60731;BMP280;46580;52.114;11.674;2023-04-27T11:40:29;101534.00;;;12.30
60731;BMP280;46580;52.114;11.674;2023-04-27T11:42:59;101542.44;;;11.97
60731;BMP280;46580;52.114;11.674;2023-04-27T11:45:28;101534.59;;;11.74
60731;BMP280;46580;52.114;11.674;2023-04-27T11:47:53;101532.22;;;11.59
60731;BMP280;46580;52.114;11.674;2023-04-27T11:50:18;101550.81;;;11.64
60731;BMP280;46580;52.114;11.674;2023-04-27T11:52:48;101541.94;;;11.56
60731;BMP280;46580;52.114;11.674;2023-04-27T11:55:14;101533.78;;;11.50
60731;BMP280;46580;52.114;11.674;2023-04-27T11:57:42;101536.47;;;11.60
60731;BMP280;46580;52.114;11.674;2023-04-27T12:00:08;101535.38;;;11.26
60731;BMP280;46580;52.114;11.674;2023-04-27T12:02:35;101540.28;;;11.43
60731;BMP280;46580;52.114;11.674;2023-04-27T12:05:02;101541.50;;;11.74
60731;BMP280;46580;52.114;11.674;2023-04-27T12:07:28;101538.53;;;11.92
60731;BMP280;46580;52.114;11.674;2023-04-27T12:09:53;101532.75;;;11.76
60731;BMP280;46580;52.114;11.674;2023-04-27T12:12:19;101533.38;;;11.43
60731;BMP280;46580;52.114;11.674;2023-04-27T12:14:47;101535.00;;;11.32
60731;BMP280;46580;52.114;11.674;2023-04-27T12:17:12;101535.84;;;11.45
60731;BMP280;46580;52.114;11.674;2023-04-27T12:19:37;101540.06;;;11.46
60731;BMP280;46580;52.114;11.674;2023-04-27T12:22:03;101532.09;;;12.09
60731;BMP280;46580;52.114;11.674;2023-04-27T12:24:29;101528.13;;;12.64
60731;BMP280;46580;52.114;11.674;2023-04-27T12:26:54;101523.44;;;12.91
60731;BMP280;46580;52.114;11.674;2023-04-27T12:29:20;101514.78;;;13.03
60731;BMP280;46580;52.114;11.674;2023-04-27T12:31:46;101518.03;;;13.94
60731;BMP280;46580;52.114;11.674;2023-04-27T12:34:12;101528.31;;;13.40
60731;BMP280;46580;52.114;11.674;2023-04-27T12:36:37;101519.66;;;13.18
60731;BMP280;46580;52.114;11.674;2023-04-27T12:39:14;101515.31;;;13.19
60731;BMP280;46580;52.114;11.674;2023-04-27T12:41:43;101502.28;;;13.20
60731;BMP280;46580;52.114;11.674;2023-04-27T12:44:09;101507.59;;;13.40
60731;BMP280;46580;52.114;11.674;2023-04-27T12:46:35;101516.88;;;12.98
60731;BMP280;46580;52.114;11.674;2023-04-27T12:49:00;101510.44;;;13.03
60731;BMP280;46580;52.114;11.674;2023-04-27T12:51:26;101505.78;;;13.74
60731;BMP280;46580;52.114;11.674;2023-04-27T12:53:52;101508.53;;;14.35
60731;BMP280;46580;52.114;11.674;2023-04-27T12:56:18;101508.69;;;13.70
60731;BMP280;46580;52.114;11.674;2023-04-27T12:58:43;101505.19;;;14.03
60731;BMP280;46580;52.114;11.674;2023-04-27T13:01:09;101501.84;;;14.33
60731;BMP280;46580;52.114;11.674;2023-04-27T13:03:45;101507.88;;;13.14
60731;BMP280;46580;52.114;11.674;2023-04-27T13:06:11;101512.53;;;13.32
60731;BMP280;46580;52.114;11.674;2023-04-27T13:08:38;101510.94;;;13.95
60731;BMP280;46580;52.114;11.674;2023-04-27T13:11:03;101502.34;;;13.52
60731;BMP280;46580;52.114;11.674;2023-04-27T13:13:28;101515.44;;;12.94
60731;BMP280;46580;52.114;11.674;2023-04-27T13:15:54;101518.81;;;12.84
60731;BMP280;46580;52.114;11.674;2023-04-27T13:18:22;101513.47;;;12.52
60731;BMP280;46580;52.114;11.674;2023-04-27T13:20:47;101510.19;;;12.15
60731;BMP280;46580;52.114;11.674;2023-04-27T13:23:12;101526.75;;;11.88
60731;BMP280;46580;52.114;11.674;2023-04-27T13:25:38;101518.28;;;11.86
60731;BMP280;46580;52.114;11.674;2023-04-27T13:28:03;101513.38;;;11.71
60731;BMP280;46580;52.114;11.674;2023-04-27T13:30:29;101509.00;;;12.54
60731;BMP280;46580;52.114;11.674;2023-04-27T13:32:54;101505.25;;;13.37
60731;BMP280;46580;52.114;11.674;2023-04-27T13:35:20;101494.56;;;14.16
60731;BMP280;46580;52.114;11.674;2023-04-27T13:37:45;101495.41;;;14.58
60731;BMP280;46580;52.114;11.674;2023-04-27T13:40:12;101491.97;;;14.16
60731;BMP280;46580;52.114;11.674;2023-04-27T13:42:38;101496.94;;;13.76
60731;BMP280;46580;52.114;11.674;2023-04-27T13:45:04;101509.84;;;13.55
60731;BMP280;46580;52.114;11.674;2023-04-27T13:47:30;101502.03;;;13.23
60731;BMP280;46580;52.114;11.674;2023-04-27T13:50:05;101492.25;;;12.71
60731;BMP280;46580;52.114;11.674;2023-04-27T13:52:31;101496.88;;;12.44
60731;BMP280;46580;52.114;11.674;2023-04-27T13:54:57;101502.41;;;12.96